Wednesday, November 21, 2018, 4:58 AM EST
Back to Local

KSEG, Selinsgrove Penn Valley Airport

Location: Selinsgrove, PA, United States Lat: 40.817
Local Time: 4:58 AM EST ( 9:58 GMT) Lon: -76.867
Time Zone: US/Eastern Elev: 449 ft

Show me the last for .
Show Decoded

2018-11-21 03:53 METAR KSEG 210853Z AUTO 00000KT 10SM BKN041 01/M06 A3008 RMK AO2 SLP189
                 T00061061 58008 =
2018-11-21 02:53 METAR KSEG 210753Z AUTO 27004KT 10SM SCT042 01/M06 A3010 RMK AO2 SLP195
                 T00061061 =
2018-11-21 01:53 METAR KSEG 210653Z AUTO 28007KT 10SM BKN043 02/M07 A3011 RMK AO2 SLP198
                 T00171067 =
2018-11-21 00:53 METAR KSEG 210553Z AUTO 00000KT 10SM OVC043 02/M06 A3010 RMK AO2 SLP197
                 T00221061 10039 20017 50000 =
2018-11-20 23:53 METAR KSEG 210453Z AUTO VRB03KT 10SM OVC045 02/M06 A3011 RMK AO2 SLP198
                 T00221061 400720022 =
2018-11-20 22:53 METAR KSEG 210353Z AUTO 27007G14KT 10SM OVC043 03/M06 A3011 RMK AO2 SLP197
                 T00281056 =
2018-11-20 21:53 METAR KSEG 210253Z AUTO VRB04KT 10SM OVC046 03/M04 A3010 RMK AO2 SLP198
                 T00281039 51010 =
2018-11-20 20:53 METAR KSEG 210153Z AUTO 29003KT 10SM BKN048 03/M04 A3010 RMK AO2 SLP196
                 T00281039 =
2018-11-20 19:53 METAR KSEG 210053Z AUTO 30005KT 10SM FEW060 03/M03 A3009 RMK AO2 SLP194
                 T00281033 =
2018-11-20 18:53 METAR KSEG 202353Z AUTO 28009G14KT 240V300 10SM FEW070 03/M03 A3007 RMK AO2
                 SLP187 T00331028 10072 20033 51023 =
2018-11-20 17:53 METAR KSEG 202253Z AUTO 28009G14KT 240V300 10SM BKN050 04/M02 A3006 RMK AO2
                 SLP182 T00441022 =
2018-11-20 16:53 METAR KSEG 202153Z AUTO 00000KT 10SM OVC050 04/M02 A3003 RMK AO2 SLP172
                 T00441017 =
2018-11-20 15:53 METAR KSEG 202053Z AUTO 28007KT 10SM BKN039 OVC047 05/M02 A3001 RMK AO2 SLP164
                 T00501017 53016 =
2018-11-20 14:53 METAR KSEG 201953Z AUTO VRB06G16KT 10SM SCT037 OVC047 06/M02 A2998 RMK AO2
                 SLP155 T00561017 =
2018-11-20 13:53 METAR KSEG 201853Z AUTO 29011G20KT 10SM BKN045 06/M01 A2997 RMK AO2 SLP149
                 T00611011 =
2018-11-20 12:53 METAR KSEG 201753Z AUTO 28008G16KT 10SM BKN036 BKN043 OVC055 06/M01 A2996 RMK
                 AO2 SLP147 T00611006 10067 20033 58002 =
2018-11-20 11:53 METAR KSEG 201653Z AUTO VRB04KT 10SM BKN036 OVC100 06/01 A2996 RMK AO2 SLP148
                 T00610006 =
2018-11-20 10:53 METAR KSEG 201553Z AUTO 29006KT 10SM BKN100 BKN120 06/02 A2997 RMK AO2 SLP150
                 T00560017 =
2018-11-20 09:53 METAR KSEG 201453Z AUTO 29003KT 10SM BKN070 OVC090 04/02 A2996 RMK AO2 SLP150
                 T00440022 53009 =
2018-11-20 09:05 METAR KSEG 201405Z AUTO 00000KT 10SM SCT019 OVC085 04/02 A2996 RMK AO2 T00440022
                 =
2018-11-20 08:53 METAR KSEG 201353Z AUTO 00000KT 10SM BKN019 OVC080 04/02 A2995 RMK AO2 SLP146
                 T00390022 =
2018-11-20 07:53 METAR KSEG 201253Z AUTO 32005KT 10SM BKN019 OVC095 04/02 A2994 RMK AO2 SLP141
                 T00390017 =
2018-11-20 07:50 METAR KSEG 201250Z AUTO 32005KT 10SM BKN019 OVC095 04/02 A2994 RMK AO2 =
2018-11-20 06:53 METAR KSEG 201153Z AUTO 30007KT 10SM BKN031 OVC095 03/02 A2992 RMK AO2 SLP137
                 70010 T00330017 10033 20022 53006 =
2018-11-20 06:01 METAR KSEG 201101Z AUTO 00000KT 3SM BR SCT003 OVC032 02/02 A2992 RMK AO2
                 T00220017 =
2018-11-20 05:53 METAR KSEG 201053Z AUTO 00000KT 3SM BR BKN003 OVC032 02/02 A2992 RMK AO2 SLP135
                 T00220017 =
2018-11-20 05:13 METAR KSEG 201013Z AUTO 31003KT 3SM BR BKN004 OVC032 03/02 A2991 RMK AO2
                 T00280017 =
2018-11-20 05:06 METAR KSEG 201006Z AUTO 00000KT 2 1/2SM BR BKN004 OVC030 03/02 A2991 RMK AO2
                 T00280022 =
2018-11-20 04:59 METAR KSEG 200959Z AUTO 00000KT 2 1/2SM BR SCT005 OVC030 03/02 A2991 RMK AO2
                 T00280022 =

Support USWX by starting your Amazon purchase here.